Time;durP1;ratioP1;P1;durP2;ratioP2;P2;SDS_P1;SDS_P2;PMS_P1;PMS_P2;Temp;Humidity;BMP_temperature;BMP_pressure;BME280_temperature;BME280_humidity;BME280_pressure;Samples;Min_cycle;Max_cycle;Signal;HPM_P1;HPM_P2
2023/12/14 00:01:33;;;;;;;0.00;0.00;;;;;;;;;;6196271;22;20439;-85
2023/12/14 00:03:58;;;;;;;0.00;0.00;;;;;;;;;;6274084;22;20451;-85
2023/12/14 00:06:24;;;;;;;0.00;0.00;;;;;;;;;;6274222;22;20058;-85
2023/12/14 00:08:49;;;;;;;0.00;0.00;;;;;;;;;;6222507;22;20023;-85
2023/12/14 00:11:15;;;;;;;0.00;0.00;;;;;;;;;;6274154;22;20004;-85
2023/12/14 00:13:40;;;;;;;0.00;0.00;;;;;;;;;;6196154;22;20015;-83
2023/12/14 00:16:06;;;;;;;0.00;0.00;;;;;;;;;;6196793;22;20000;-85
2023/12/14 00:18:32;;;;;;;0.00;0.00;;;;;;;;;;6222111;22;20004;-86
2023/12/14 00:20:58;;;;;;;0.00;0.00;;;;;;;;;;6194455;23;20091;-85
2023/12/14 00:23:23;;;;;;;0.00;0.00;;;;;;;;;;6216376;23;20069;-85
2023/12/14 00:25:49;;;;;;;0.00;0.00;;;;;;;;;;6216578;23;20082;-85
2023/12/14 00:28:14;;;;;;;0.00;0.00;;;;;;;;;;6242022;23;20089;-86
2023/12/14 00:30:40;;;;;;;0.00;0.00;;;;;;;;;;6216359;23;20000;-85
2023/12/14 00:33:05;;;;;;;0.00;0.00;;;;;;;;;;6217135;23;20074;-85
2023/12/14 00:35:32;;;;;;;0.00;0.00;;;;;;;;;;6241731;23;20015;-85
2023/12/14 00:37:57;;;;;;;0.00;0.00;;;;;;;;;;6216445;23;20008;-85
2023/12/14 00:40:23;;;;;;;0.00;0.00;;;;;;;;;;6191736;23;20086;-86
2023/12/14 00:42:48;;;;;;;0.00;0.00;;;;;;;;;;6242236;23;20004;-85
2023/12/14 00:45:14;;;;;;;0.00;0.00;;;;;;;;;;6187115;23;20012;-85
2023/12/14 00:47:40;;;;;;;0.00;0.00;;;;;;;;;;6212980;23;20001;-85
2023/12/14 00:50:06;;;;;;;0.00;0.00;;;;;;;;;;6186339;23;20089;-86
2023/12/14 00:52:31;;;;;;;0.00;0.00;;;;;;;;;;6239902;23;20435;-85
2023/12/14 00:54:57;;;;;;;0.00;0.00;;;;;;;;;;6161436;23;20004;-85
2023/12/14 00:57:22;;;;;;;0.00;0.00;;;;;;;;;;6188907;23;20000;-85
2023/12/14 00:59:48;;;;;;;0.00;0.00;;;;;;;;;;6191379;23;20028;-85
2023/12/14 01:02:13;;;;;;;0.00;0.00;;;;;;;;;;6187116;23;20036;-85
2023/12/14 01:04:39;;;;;;;0.00;0.00;;;;;;;;;;6216032;23;20015;-86
2023/12/14 01:07:05;;;;;;;0.00;0.00;;;;;;;;;;6216174;23;20000;-85
2023/12/14 01:09:31;;;;;;;0.00;0.00;;;;;;;;;;6216692;23;20094;-85
2023/12/14 01:11:57;;;;;;;0.00;0.00;;;;;;;;;;6241629;23;20005;-85
2023/12/14 01:14:22;;;;;;;0.00;0.00;;;;;;;;;;6243183;23;20443;-85
2023/12/14 01:16:48;;;;;;;0.00;0.00;;;;;;;;;;6242877;23;20044;-86
2023/12/14 01:19:13;;;;;;;0.00;0.00;;;;;;;;;;6186969;23;20004;-85
2023/12/14 01:21:39;;;;;;;0.00;0.00;;;;;;;;;;6227897;23;20004;-85
2023/12/14 01:24:05;;;;;;;0.00;0.00;;;;;;;;;;6191536;23;20007;-86
2023/12/14 01:26:30;;;;;;;0.00;0.00;;;;;;;;;;6242085;23;20091;-85
2023/12/14 01:28:56;;;;;;;0.00;0.00;;;;;;;;;;6191621;23;20004;-85
2023/12/14 01:31:24;;;;;;;0.00;0.00;;;;;;;;;;6216176;23;20000;-85
2023/12/14 01:33:50;;;;;;;0.00;0.00;;;;;;;;;;6241505;23;20069;-85
2023/12/14 01:36:22;;;;;;;0.00;0.00;;;;;;;;;;6241527;23;20036;-85
2023/12/14 01:38:47;;;;;;;0.00;0.00;;;;;;;;;;6241601;23;20428;-86
2023/12/14 01:41:13;;;;;;;0.00;0.00;;;;;;;;;;6241941;23;20027;-86
2023/12/14 01:43:38;;;;;;;0.00;0.00;;;;;;;;;;6192332;23;20050;-86
2023/12/14 01:46:04;;;;;;;0.00;0.00;;;;;;;;;;6193272;23;20001;-86
2023/12/14 01:48:29;;;;;;;0.00;0.00;;;;;;;;;;6190404;23;20077;-86
2023/12/14 01:50:55;;;;;;;0.00;0.00;;;;;;;;;;6242576;23;20000;-86
2023/12/14 01:53:21;;;;;;;0.00;0.00;;;;;;;;;;6217751;23;20007;-85
2023/12/14 01:55:48;;;;;;;0.00;0.00;;;;;;;;;;6218120;23;20011;-85
2023/12/14 01:58:13;;;;;;;0.00;0.00;;;;;;;;;;6243303;23;20008;-85
2023/12/14 02:00:49;;;;;;;0.00;0.00;;;;;;;;;;6217896;23;20011;-85
2023/12/14 02:03:15;;;;;;;0.00;0.00;;;;;;;;;;6219496;23;20388;-86
2023/12/14 02:05:41;;;;;;;0.00;0.00;;;;;;;;;;6192835;23;20047;-85
2023/12/14 02:08:07;;;;;;;0.00;0.00;;;;;;;;;;6242335;23;20011;-84
2023/12/14 02:10:32;;;;;;;0.00;0.00;;;;;;;;;;6244357;22;20014;-85
2023/12/14 02:12:58;;;;;;;0.00;0.00;;;;;;;;;;6217560;23;20347;-85
2023/12/14 02:15:23;;;;;;;0.00;0.00;;;;;;;;;;6243640;23;20009;-85
2023/12/14 02:17:49;;;;;;;0.00;0.00;;;;;;;;;;6218908;23;20004;-85
2023/12/14 02:20:14;;;;;;;0.00;0.00;;;;;;;;;;6192560;23;20008;-85
2023/12/14 02:22:53;;;;;;;0.00;0.00;;;;;;;;;;6163959;23;20412;-84
2023/12/14 02:25:19;;;;;;;0.00;0.00;;;;;;;;;;6189032;23;20019;-86
2023/12/14 02:27:44;;;;;;;0.00;0.00;;;;;;;;;;6245019;23;20058;-85
2023/12/14 02:30:11;;;;;;;0.00;0.00;;;;;;;;;;6192924;23;20004;-86
2023/12/14 02:32:37;;;;;;;0.00;0.00;;;;;;;;;;6188948;23;20004;-85
2023/12/14 02:35:03;;;;;;;0.00;0.00;;;;;;;;;;6244100;23;20035;-85
2023/12/14 02:37:28;;;;;;;0.00;0.00;;;;;;;;;;6191878;23;20011;-86
2023/12/14 02:39:54;;;;;;;0.00;0.00;;;;;;;;;;6192012;23;20015;-85
2023/12/14 02:42:20;;;;;;;0.00;0.00;;;;;;;;;;6244412;23;20008;-84
2023/12/14 02:44:46;;;;;;;0.00;0.00;;;;;;;;;;6193203;23;20489;-84
2023/12/14 02:47:12;;;;;;;0.00;0.00;;;;;;;;;;6186196;23;20009;-85
2023/12/14 02:49:37;;;;;;;0.00;0.00;;;;;;;;;;6167394;23;20061;-85
2023/12/14 02:52:03;;;;;;;0.00;0.00;;;;;;;;;;6192243;23;20004;-86
2023/12/14 02:54:28;;;;;;;0.00;0.00;;;;;;;;;;6192396;23;20019;-85
2023/12/14 02:56:54;;;;;;;0.00;0.00;;;;;;;;;;6192837;23;20000;-86
2023/12/14 02:59:19;;;;;;;0.00;0.00;;;;;;;;;;6167624;23;20007;-86
2023/12/14 03:01:45;;;;;;;0.00;0.00;;;;;;;;;;6220374;23;20019;-83
2023/12/14 03:04:10;;;;;;;0.00;0.00;;;;;;;;;;6177505;23;20008;-82
2023/12/14 03:06:36;;;;;;;0.00;0.00;;;;;;;;;;6178527;23;20031;-82
2023/12/14 03:09:01;;;;;;;0.00;0.00;;;;;;;;;;6225617;23;20408;-83
2023/12/14 03:11:27;;;;;;;0.00;0.00;;;;;;;;;;6176085;23;20087;-85
2023/12/14 03:13:52;;;;;;;0.00;0.00;;;;;;;;;;6202758;23;20098;-84
2023/12/14 03:16:19;;;;;;;0.00;0.00;;;;;;;;;;6253302;23;20000;-84
2023/12/14 03:18:44;;;;;;;0.00;0.00;;;;;;;;;;6225137;23;20087;-85
2023/12/14 03:21:10;;;;;;;0.00;0.00;;;;;;;;;;6225287;23;20015;-85
2023/12/14 03:23:35;;;;;;;0.00;0.00;;;;;;;;;;6218696;23;20008;-85
2023/12/14 03:26:01;;;;;;;0.00;0.00;;;;;;;;;;6219621;23;20006;-85
2023/12/14 03:28:27;;;;;;;0.00;0.00;;;;;;;;;;6244542;23;20004;-85
2023/12/14 03:30:53;;;;;;;0.00;0.00;;;;;;;;;;6219175;23;20004;-84
2023/12/14 03:33:18;;;;;;;0.00;0.00;;;;;;;;;;6244899;23;20406;-85
2023/12/14 03:35:44;;;;;;;0.00;0.00;;;;;;;;;;6244661;23;20004;-85
2023/12/14 03:38:10;;;;;;;0.00;0.00;;;;;;;;;;6217472;23;20008;-85
2023/12/14 03:40:35;;;;;;;0.00;0.00;;;;;;;;;;6242640;23;20347;-85
2023/12/14 03:43:03;;;;;;;0.00;0.00;;;;;;;;;;6242753;23;20061;-85
2023/12/14 03:45:28;;;;;;;0.00;0.00;;;;;;;;;;6243701;22;20011;-85
2023/12/14 03:47:54;;;;;;;0.00;0.00;;;;;;;;;;6217093;23;20000;-86
2023/12/14 03:50:19;;;;;;;0.00;0.00;;;;;;;;;;6267539;22;20011;-85
2023/12/14 03:52:45;;;;;;;0.00;0.00;;;;;;;;;;6217515;23;20432;-85
2023/12/14 03:55:11;;;;;;;0.00;0.00;;;;;;;;;;6217485;23;20018;-85
2023/12/14 03:57:36;;;;;;;0.00;0.00;;;;;;;;;;6243029;23;20008;-86
2023/12/14 04:00:02;;;;;;;0.00;0.00;;;;;;;;;;6242192;23;20003;-85
2023/12/14 04:02:27;;;;;;;0.00;0.00;;;;;;;;;;6239548;23;20458;-85
2023/12/14 04:04:53;;;;;;;0.00;0.00;;;;;;;;;;6192182;23;20008;-85
2023/12/14 04:07:19;;;;;;;0.00;0.00;;;;;;;;;;6217205;23;20016;-85
2023/12/14 04:09:45;;;;;;;0.00;0.00;;;;;;;;;;6217138;23;20347;-85
2023/12/14 04:12:11;;;;;;;0.00;0.00;;;;;;;;;;6216998;23;20137;-85
2023/12/14 04:14:36;;;;;;;0.00;0.00;;;;;;;;;;6216843;23;20427;-85
2023/12/14 04:17:02;;;;;;;0.00;0.00;;;;;;;;;;6241826;23;20030;-85
2023/12/14 04:19:27;;;;;;;0.00;0.00;;;;;;;;;;6241842;23;20013;-85
2023/12/14 04:21:53;;;;;;;0.00;0.00;;;;;;;;;;6216036;23;20087;-86
2023/12/14 04:24:18;;;;;;;0.00;0.00;;;;;;;;;;6216923;23;20012;-85
2023/12/14 04:26:44;;;;;;;0.00;0.00;;;;;;;;;;6217115;23;20054;-85
2023/12/14 04:29:10;;;;;;;0.00;0.00;;;;;;;;;;6243216;22;20070;-86
2023/12/14 04:31:35;;;;;;;0.00;0.00;;;;;;;;;;6241691;23;20008;-86
2023/12/14 04:34:01;;;;;;;0.00;0.00;;;;;;;;;;6243372;22;20489;-85
2023/12/14 04:36:26;;;;;;;0.00;0.00;;;;;;;;;;6216477;23;20453;-86
2023/12/14 04:38:52;;;;;;;0.00;0.00;;;;;;;;;;6242681;23;20355;-86
2023/12/14 04:41:17;;;;;;;0.00;0.00;;;;;;;;;;6242304;23;20426;-86
2023/12/14 04:43:43;;;;;;;0.00;0.00;;;;;;;;;;6217619;23;20008;-86
2023/12/14 04:46:08;;;;;;;0.30;0.00;;;;;;;;;;6220065;23;20010;-86
2023/12/14 04:48:34;;;;;;;0.00;0.00;;;;;;;;;;6249011;23;20000;-86
2023/12/14 04:50:59;;;;;;;0.00;0.00;;;;;;;;;;6252434;22;20087;-88
2023/12/14 04:53:25;;;;;;;0.00;0.00;;;;;;;;;;6219864;23;20011;-85
2023/12/14 04:55:51;;;;;;;0.00;0.00;;;;;;;;;;6243632;23;20000;-86
2023/12/14 04:58:17;;;;;;;0.00;0.00;;;;;;;;;;6245962;22;20062;-87
2023/12/14 05:00:42;;;;;;;0.00;0.00;;;;;;;;;;6216730;23;20008;-86
2023/12/14 05:03:08;;;;;;;0.00;0.00;;;;;;;;;;6188806;23;20012;-86
2023/12/14 05:05:33;;;;;;;0.00;0.00;;;;;;;;;;6241013;22;20008;-86
2023/12/14 05:07:59;;;;;;;0.00;0.00;;;;;;;;;;6241785;23;20004;-86
2023/12/14 05:10:24;;;;;;;0.00;0.00;;;;;;;;;;6243726;22;20071;-87
2023/12/14 05:12:50;;;;;;;0.00;0.00;;;;;;;;;;6241904;23;20012;-87
2023/12/14 05:15:15;;;;;;;0.00;0.00;;;;;;;;;;6241803;22;20004;-87
2023/12/14 05:17:41;;;;;;;0.00;0.00;;;;;;;;;;6244099;23;20019;-88
2023/12/14 05:20:08;;;;;;;0.00;0.00;;;;;;;;;;6218293;23;20348;-88
2023/12/14 05:22:34;;;;;;;0.00;0.00;;;;;;;;;;6273336;22;20012;-88
2023/12/14 05:24:59;;;;;;;0.00;0.00;;;;;;;;;;6248957;22;20046;-87
2023/12/14 05:27:25;;;;;;;0.00;0.00;;;;;;;;;;6248250;22;20013;-87
2023/12/14 05:29:51;;;;;;;0.00;0.00;;;;;;;;;;6248378;22;20000;-88
2023/12/14 05:32:16;;;;;;;0.00;0.00;;;;;;;;;;6223329;22;20430;-87
2023/12/14 05:34:42;;;;;;;0.00;0.00;;;;;;;;;;6223664;22;20285;-87
2023/12/14 05:37:07;;;;;;;0.00;0.00;;;;;;;;;;6248531;22;20023;-87
2023/12/14 05:39:33;;;;;;;0.00;0.00;;;;;;;;;;6223391;22;20066;-89
2023/12/14 05:41:58;;;;;;;0.00;0.00;;;;;;;;;;6223330;22;20458;-87
2023/12/14 05:44:25;;;;;;;0.00;0.00;;;;;;;;;;6223454;22;20008;-90
2023/12/14 05:46:50;;;;;;;0.00;0.00;;;;;;;;;;6200352;22;20339;-88
2023/12/14 05:49:16;;;;;;;0.00;0.00;;;;;;;;;;6251419;22;20004;-90
2023/12/14 05:51:45;;;;;;;0.00;0.00;;;;;;;;;;6206166;22;20125;-89
2023/12/14 05:54:10;;;;;;;0.00;0.00;;;;;;;;;;6254658;22;20410;-89
2023/12/14 05:56:36;;;;;;;0.00;0.00;;;;;;;;;;6224198;22;20015;-86
2023/12/14 05:59:02;;;;;;;0.00;0.00;;;;;;;;;;6275744;22;20004;-84
2023/12/14 06:01:34;;;;;;;0.00;0.00;;;;;;;;;;6237306;22;19999;-86
2023/12/14 06:04:00;;;;;;;0.00;0.00;;;;;;;;;;6277897;22;20438;-86
2023/12/14 06:06:28;;;;;;;0.00;0.00;;;;;;;;;;6243439;22;20003;-82
2023/12/14 06:08:53;;;;;;;0.00;0.00;;;;;;;;;;6216948;22;20103;-83
2023/12/14 06:11:20;;;;;;;0.00;0.00;;;;;;;;;;6246297;22;20427;-83
2023/12/14 06:14:09;;;;;;;0.00;0.00;;;;;;;;;;6255856;22;20423;-93
2023/12/14 06:16:41;;;;;;;0.00;0.00;;;;;;;;;;6231998;22;20004;-91
2023/12/14 06:19:08;;;;;;;0.03;0.00;;;;;;;;;;6239943;22;20008;-93
2023/12/14 06:21:40;;;;;;;0.00;0.00;;;;;;;;;;6266231;22;20070;-91
2023/12/14 06:24:07;;;;;;;0.00;0.00;;;;;;;;;;6229209;22;20022;-89
2023/12/14 06:26:32;;;;;;;0.00;0.00;;;;;;;;;;6227855;22;20339;-91
2023/12/14 06:28:58;;;;;;;0.00;0.00;;;;;;;;;;6043125;22;3578674;-88
2023/12/14 06:31:25;;;;;;;0.00;0.00;;;;;;;;;;6197332;22;20008;-86
2023/12/14 06:33:53;;;;;;;0.00;0.00;;;;;;;;;;6251436;22;20015;-88
2023/12/14 06:36:51;;;;;;;0.00;0.00;;;;;;;;;;6260703;22;20392;-88
2023/12/14 06:42:39;;;;;;;0.00;0.00;;;;;;;;;;6284218;22;20499;-91
2023/12/14 06:48:05;;;;;;;0.00;0.00;;;;;;;;;;6192648;22;20030;-91
2023/12/14 06:57:31;;;;;;;0.00;0.00;;;;;;;;;;6182719;23;20038;-90
2023/12/14 06:59:56;;;;;;;0.00;0.00;;;;;;;;;;6132842;23;20064;-92
2023/12/14 07:02:22;;;;;;;0.00;0.00;;;;;;;;;;6240546;22;20000;-85
2023/12/14 07:04:47;;;;;;;0.00;0.00;;;;;;;;;;6249272;22;20083;-86
2023/12/14 07:07:13;;;;;;;0.00;0.00;;;;;;;;;;6230695;22;20011;-84
2023/12/14 07:09:48;;;;;;;0.00;0.00;;;;;;;;;;6261939;22;20011;-84
2023/12/14 07:12:13;;;;;;;0.00;0.00;;;;;;;;;;6242699;22;20003;-88
2023/12/14 07:14:39;;;;;;;0.00;0.00;;;;;;;;;;6272670;22;20003;-89
2023/12/14 07:17:07;;;;;;;0.00;0.00;;;;;;;;;;6245315;22;20082;-89
2023/12/14 07:19:46;;;;;;;0.00;0.00;;;;;;;;;;6252664;22;20007;-93
2023/12/14 07:22:12;;;;;;;0.00;0.00;;;;;;;;;;6227331;22;20000;-89
2023/12/14 07:24:37;;;;;;;0.00;0.00;;;;;;;;;;6223589;22;20017;-87
2023/12/14 07:27:06;;;;;;;0.00;0.00;;;;;;;;;;6280286;22;20004;-90
2023/12/14 07:29:32;;;;;;;0.00;0.00;;;;;;;;;;6257446;22;20068;-88
2023/12/14 07:31:57;;;;;;;0.00;0.00;;;;;;;;;;6222440;22;20414;-91
2023/12/14 07:34:24;;;;;;;0.00;0.00;;;;;;;;;;6247887;22;19999;-85
2023/12/14 07:36:54;;;;;;;0.00;0.00;;;;;;;;;;6278568;22;20000;-91
2023/12/14 07:39:33;;;;;;;0.00;0.00;;;;;;;;;;6284256;22;20004;-93
2023/12/14 07:41:59;;;;;;;0.00;0.00;;;;;;;;;;6255637;22;20103;-90
2023/12/14 07:44:26;;;;;;;0.00;0.00;;;;;;;;;;6225233;22;20014;-88
2023/12/14 07:46:51;;;;;;;0.00;0.00;;;;;;;;;;6230776;22;20027;-89
2023/12/14 07:49:22;;;;;;;0.00;0.00;;;;;;;;;;6202803;22;20077;-80
2023/12/14 07:52:13;;;;;;;;;;;;;;;;;;6241514;22;20445;-88
2023/12/14 07:55:03;;;;;;;0.00;0.00;;;;;;;;;;6253401;22;19955;-90
2023/12/14 07:57:28;;;;;;;0.00;0.00;;;;;;;;;;6229757;22;20008;-90
2023/12/14 07:59:54;;;;;;;0.00;0.00;;;;;;;;;;6222117;22;20320;-86
2023/12/14 08:02:32;;;;;;;0.00;0.00;;;;;;;;;;6251258;22;20003;-94
2023/12/14 08:04:58;;;;;;;0.00;0.00;;;;;;;;;;6225339;22;20016;-87
2023/12/14 08:07:28;;;;;;;0.00;0.00;;;;;;;;;;6222747;22;20342;-90
2023/12/14 08:10:06;;;;;;;0.00;0.00;;;;;;;;;;6193641;23;20008;-87
2023/12/14 08:12:32;;;;;;;0.00;0.00;;;;;;;;;;6224527;23;20419;-86
2023/12/14 08:17:45;;;;;;;0.00;0.00;;;;;;;;;;6251250;23;20035;-88
2023/12/14 08:20:14;;;;;;;0.00;0.00;;;;;;;;;;6217024;23;20347;-86
2023/12/14 08:22:46;;;;;;;0.00;0.00;;;;;;;;;;6199166;23;20012;-87
2023/12/14 08:25:23;;;;;;;0.00;0.00;;;;;;;;;;6217022;23;20012;-89
2023/12/14 08:27:48;;;;;;;0.00;0.00;;;;;;;;;;6191543;23;20015;-89
2023/12/14 08:30:14;;;;;;;0.00;0.00;;;;;;;;;;6215166;23;20008;-83
2023/12/14 08:32:43;;;;;;;0.00;0.00;;;;;;;;;;6241772;23;20007;-89
2023/12/14 08:35:18;;;;;;;0.00;0.00;;;;;;;;;;6222969;23;20099;-86
2023/12/14 08:37:44;;;;;;;0.00;0.00;;;;;;;;;;6200446;22;20390;-80
2023/12/14 08:40:11;;;;;;;0.00;0.00;;;;;;;;;;6208981;23;20058;-81
2023/12/14 08:42:37;;;;;;;0.00;0.00;;;;;;;;;;6209612;23;19992;-82
2023/12/14 08:45:03;;;;;;;0.00;0.00;;;;;;;;;;6209866;23;20008;-80
2023/12/14 08:47:43;;;;;;;0.00;0.00;;;;;;;;;;6241088;23;20078;-93
2023/12/14 08:50:30;;;;;;;0.00;0.00;;;;;;;;;;6221841;23;20012;-95
2023/12/14 08:53:04;;;;;;;0.00;0.00;;;;;;;;;;6237599;23;20053;-94
2023/12/14 08:55:33;;;;;;;0.00;0.00;;;;;;;;;;6236881;23;20039;-95
2023/12/14 08:58:01;;;;;;;0.00;0.00;;;;;;;;;;6236119;23;20004;-93
2023/12/14 09:01:09;;;;;;;0.00;0.00;;;;;;;;;;6240568;23;20060;-95
2023/12/14 09:03:35;;;;;;;0.00;0.00;;;;;;;;;;6233469;23;20019;-90
2023/12/14 09:06:20;;;;;;;0.00;0.00;;;;;;;;;;6217398;23;20004;-84
2023/12/14 09:09:02;;;;;;;0.00;0.00;;;;;;;;;;6243487;23;20013;-88
2023/12/14 09:11:28;;;;;;;0.00;0.00;;;;;;;;;;6243568;23;20011;-86
2023/12/14 09:13:53;;;;;;;0.00;0.00;;;;;;;;;;6190352;23;20000;-87
2023/12/14 09:16:49;;;;;;;0.00;0.00;;;;;;;;;;6192878;23;20427;-88
2023/12/14 09:19:31;;;;;;;0.00;0.00;;;;;;;;;;6209130;23;20005;-88
2023/12/14 09:22:01;;;;;;;0.00;0.00;;;;;;;;;;6235512;23;20064;-90
2023/12/14 09:24:32;;;;;;;0.00;0.00;;;;;;;;;;6255381;23;20011;-90
2023/12/14 09:27:05;;;;;;;0.00;0.00;;;;;;;;;;6201288;23;20008;-92
2023/12/14 09:29:37;;;;;;;0.00;0.00;;;;;;;;;;6234066;23;20003;-89
2023/12/14 09:32:19;;;;;;;0.00;0.00;;;;;;;;;;6195641;22;20051;-91
2023/12/14 09:34:44;;;;;;;0.00;0.00;;;;;;;;;;6212219;23;20051;-89
2023/12/14 09:37:14;;;;;;;0.00;0.00;;;;;;;;;;6182872;22;20077;-88
2023/12/14 09:40:11;;;;;;;0.00;0.00;;;;;;;;;;6269408;22;20007;-94
2023/12/14 09:46:16;;;;;;;0.00;0.00;;;;;;;;;;6263343;22;20119;-89
2023/12/14 09:48:52;;;;;;;0.00;0.00;;;;;;;;;;6230707;22;20008;-91
2023/12/14 09:51:24;;;;;;;0.00;0.00;;;;;;;;;;6228773;22;20004;-89
2023/12/14 09:56:48;;;;;;;0.00;0.00;;;;;;;;;;6278500;22;20026;-89
2023/12/14 09:59:42;;;;;;;0.00;0.00;;;;;;;;;;6257626;22;20095;-91
2023/12/14 10:02:17;;;;;;;0.00;0.00;;;;;;;;;;6241247;22;20007;-88
2023/12/14 10:04:43;;;;;;;0.00;0.00;;;;;;;;;;6230526;22;20014;-87
2023/12/14 10:07:09;;;;;;;0.00;0.00;;;;;;;;;;6225249;22;20033;-84
2023/12/14 10:09:45;;;;;;;0.00;0.00;;;;;;;;;;6253610;22;20004;-89
2023/12/14 10:12:11;;;;;;;0.00;0.00;;;;;;;;;;6254488;22;20015;-84
2023/12/14 10:14:37;;;;;;;0.03;0.00;;;;;;;;;;6250404;22;20078;-86
2023/12/14 10:17:32;;;;;;;0.00;0.00;;;;;;;;;;6251284;22;20015;-86
2023/12/14 10:20:00;;;;;;;0.00;0.00;;;;;;;;;;6273492;22;19995;-87
2023/12/14 10:22:37;;;;;;;0.00;0.00;;;;;;;;;;6248507;22;20008;-85
2023/12/14 10:25:03;;;;;;;0.00;0.00;;;;;;;;;;6278690;22;20003;-86
2023/12/14 10:27:30;;;;;;;0.00;0.00;;;;;;;;;;6224088;22;20008;-91
2023/12/14 10:29:56;;;;;;;0.00;0.00;;;;;;;;;;6276630;22;20000;-85
2023/12/14 10:32:41;;;;;;;0.00;0.00;;;;;;;;;;6250198;22;20007;-86
2023/12/14 10:35:16;;;;;;;0.00;0.00;;;;;;;;;;6250739;22;20062;-85
2023/12/14 10:38:19;;;;;;;0.00;0.00;;;;;;;;;;6274629;22;20015;-88
2023/12/14 10:46:40;;;;;;;0.00;0.00;;;;;;;;;;6289291;22;20054;-89
2023/12/14 10:49:12;;;;;;;0.00;0.00;;;;;;;;;;6237443;22;20007;-88
2023/12/14 10:51:43;;;;;;;0.00;0.00;;;;;;;;;;6210482;22;20010;-92
2023/12/14 10:54:14;;;;;;;0.00;0.00;;;;;;;;;;6257565;22;20004;-89
2023/12/14 10:56:40;;;;;;;0.00;0.00;;;;;;;;;;6225650;22;20011;-88
2023/12/14 10:59:06;;;;;;;0.00;0.00;;;;;;;;;;6201019;22;20019;-90
2023/12/14 11:01:32;;;;;;;0.00;0.00;;;;;;;;;;6231444;22;20015;-88
2023/12/14 11:03:59;;;;;;;0.00;0.00;;;;;;;;;;6274929;22;20342;-87
2023/12/14 11:06:24;;;;;;;0.00;0.00;;;;;;;;;;6280458;22;19995;-88
2023/12/14 11:08:54;;;;;;;0.00;0.00;;;;;;;;;;6279527;22;20095;-88
2023/12/14 11:11:20;;;;;;;0.00;0.00;;;;;;;;;;6283932;22;19999;-89
2023/12/14 11:13:52;;;;;;;0.00;0.00;;;;;;;;;;6261577;22;20401;-89
2023/12/14 11:16:22;;;;;;;0.00;0.00;;;;;;;;;;6252843;22;20004;-88
2023/12/14 11:18:47;;;;;;;0.00;0.00;;;;;;;;;;6286038;22;20057;-88
2023/12/14 11:21:20;;;;;;;0.00;0.00;;;;;;;;;;6255434;22;20408;-89
2023/12/14 11:23:49;;;;;;;0.00;0.00;;;;;;;;;;6256326;22;20094;-91
2023/12/14 11:26:23;;;;;;;0.00;0.00;;;;;;;;;;6262592;22;20003;-89
2023/12/14 11:28:50;;;;;;;0.00;0.00;;;;;;;;;;6232587;22;20120;-87
2023/12/14 11:31:17;;;;;;;0.00;0.00;;;;;;;;;;6261712;22;20012;-90
2023/12/14 11:33:44;;;;;;;0.00;0.00;;;;;;;;;;6263900;22;20419;-88
2023/12/14 11:36:11;;;;;;;0.00;0.00;;;;;;;;;;6259579;22;20050;-84
2023/12/14 11:38:39;;;;;;;0.00;0.00;;;;;;;;;;6264945;22;20011;-84
2023/12/14 11:41:05;;;;;;;0.00;0.00;;;;;;;;;;6237934;22;20023;-88
2023/12/14 11:43:40;;;;;;;0.00;0.00;;;;;;;;;;6262981;22;20003;-88
2023/12/14 11:46:05;;;;;;;0.00;0.00;;;;;;;;;;6221304;23;20075;-86
2023/12/14 11:48:32;;;;;;;0.00;0.00;;;;;;;;;;6242728;23;20008;-86
2023/12/14 11:50:58;;;;;;;0.00;0.00;;;;;;;;;;6243613;23;20079;-82
2023/12/14 11:53:48;;;;;;;0.00;0.00;;;;;;;;;;6213380;23;20070;-82
2023/12/14 11:56:17;;;;;;;0.00;0.00;;;;;;;;;;6244690;22;20078;-84
2023/12/14 11:59:02;;;;;;;0.00;0.00;;;;;;;;;;6249595;23;20059;-84
2023/12/14 12:04:53;;;;;;;0.00;0.00;;;;;;;;;;6262287;23;20019;-82
2023/12/14 12:07:28;;;;;;;0.00;0.00;;;;;;;;;;6248965;23;20008;-83
2023/12/14 12:10:31;;;;;;;0.00;0.00;;;;;;;;;;6246064;23;20007;-83
2023/12/14 12:13:04;;;;;;;0.00;0.00;;;;;;;;;;6222571;23;20012;-83
2023/12/14 12:16:02;;;;;;;0.00;0.00;;;;;;;;;;6223416;23;20004;-84
2023/12/14 12:18:28;;;;;;;0.00;0.00;;;;;;;;;;6249272;23;20087;-83
2023/12/14 12:20:54;;;;;;;0.00;0.00;;;;;;;;;;6248551;23;20011;-78
2023/12/14 12:23:29;;;;;;;0.00;0.00;;;;;;;;;;6242899;23;20004;-80
2023/12/14 12:25:55;;;;;;;0.00;0.00;;;;;;;;;;6215134;23;20020;-85
2023/12/14 12:28:21;;;;;;;0.00;0.00;;;;;;;;;;6246441;22;20000;-85
2023/12/14 12:30:47;;;;;;;0.00;0.00;;;;;;;;;;6237302;23;20102;-83
2023/12/14 12:33:13;;;;;;;0.00;0.00;;;;;;;;;;6215434;22;20071;-84
2023/12/14 12:35:41;;;;;;;0.00;0.00;;;;;;;;;;6241164;22;20008;-83
2023/12/14 12:38:07;;;;;;;0.00;0.00;;;;;;;;;;6242489;22;20044;-82
2023/12/14 12:40:33;;;;;;;0.00;0.00;;;;;;;;;;6251014;22;20015;-83
2023/12/14 12:42:58;;;;;;;0.00;0.00;;;;;;;;;;6242873;22;20023;-80
2023/12/14 12:45:27;;;;;;;0.00;0.00;;;;;;;;;;6203915;23;20039;-84
2023/12/14 12:47:53;;;;;;;0.00;0.00;;;;;;;;;;6187512;23;20452;-82
2023/12/14 12:50:18;;;;;;;0.00;0.00;;;;;;;;;;6238505;23;20008;-83
2023/12/14 12:52:45;;;;;;;0.00;0.00;;;;;;;;;;6239576;23;20000;-85
2023/12/14 12:55:11;;;;;;;0.00;0.00;;;;;;;;;;6239514;23;20004;-83
2023/12/14 12:57:37;;;;;;;0.00;0.00;;;;;;;;;;6241150;23;20374;-84
2023/12/14 13:00:10;;;;;;;0.00;0.00;;;;;;;;;;6245231;23;20099;-85
2023/12/14 13:02:39;;;;;;;0.00;0.00;;;;;;;;;;6243857;23;20004;-83
2023/12/14 13:05:07;;;;;;;0.00;0.00;;;;;;;;;;6243489;23;20011;-82
2023/12/14 13:07:33;;;;;;;0.00;0.00;;;;;;;;;;6218655;23;20446;-87
2023/12/14 13:09:58;;;;;;;0.00;0.00;;;;;;;;;;6216641;23;20001;-81
2023/12/14 13:12:24;;;;;;;0.00;0.00;;;;;;;;;;6244115;23;20005;-83
2023/12/14 13:14:49;;;;;;;0.00;0.00;;;;;;;;;;6219140;23;20000;-81
2023/12/14 13:17:17;;;;;;;0.00;0.00;;;;;;;;;;6248767;23;20004;-80
2023/12/14 13:19:46;;;;;;;0.00;0.00;;;;;;;;;;6246050;23;20432;-83
2023/12/14 13:22:11;;;;;;;0.00;0.00;;;;;;;;;;6244303;23;20046;-86
2023/12/14 13:24:38;;;;;;;0.00;0.00;;;;;;;;;;6247021;23;20027;-83
2023/12/14 13:27:04;;;;;;;0.00;0.00;;;;;;;;;;6192077;23;20004;-80
2023/12/14 13:29:32;;;;;;;0.00;0.00;;;;;;;;;;6244985;23;20062;-81
2023/12/14 13:31:57;;;;;;;0.00;0.00;;;;;;;;;;6244320;23;20072;-81
2023/12/14 13:34:23;;;;;;;0.00;0.00;;;;;;;;;;6216255;23;20443;-82
2023/12/14 13:36:48;;;;;;;0.00;0.00;;;;;;;;;;6247119;23;20330;-83
2023/12/14 13:39:14;;;;;;;0.00;0.00;;;;;;;;;;6245971;23;20004;-84
2023/12/14 13:41:43;;;;;;;0.00;0.00;;;;;;;;;;6244865;23;20031;-84
2023/12/14 13:44:09;;;;;;;0.00;0.00;;;;;;;;;;6217633;23;20371;-89
2023/12/14 13:46:34;;;;;;;0.00;0.00;;;;;;;;;;6273412;22;20073;-86
2023/12/14 13:49:00;;;;;;;0.00;0.00;;;;;;;;;;6251144;22;20427;-86
2023/12/14 13:51:26;;;;;;;0.00;0.00;;;;;;;;;;6277731;22;20000;-86
2023/12/14 13:53:52;;;;;;;0.00;0.00;;;;;;;;;;6278063;22;20022;-85
2023/12/14 13:56:17;;;;;;;0.00;0.00;;;;;;;;;;6288716;22;19999;-87
2023/12/14 13:58:43;;;;;;;0.00;0.00;;;;;;;;;;6277281;22;20091;-83
2023/12/14 14:01:09;;;;;;;0.00;0.00;;;;;;;;;;6276733;22;20000;-83
2023/12/14 14:03:35;;;;;;;0.00;0.00;;;;;;;;;;6276358;22;20048;-84
2023/12/14 14:06:02;;;;;;;0.00;0.00;;;;;;;;;;6276010;22;20068;-85
2023/12/14 14:08:27;;;;;;;0.00;0.00;;;;;;;;;;6250384;22;20010;-85
2023/12/14 14:10:53;;;;;;;0.00;0.00;;;;;;;;;;6280389;22;19999;-84
2023/12/14 14:13:20;;;;;;;0.00;0.00;;;;;;;;;;6206865;22;20082;-84
2023/12/14 14:15:46;;;;;;;0.00;0.00;;;;;;;;;;6293493;22;20030;-84
2023/12/14 14:18:11;;;;;;;0.00;0.00;;;;;;;;;;6229764;22;20014;-84
2023/12/14 14:20:37;;;;;;;0.00;0.00;;;;;;;;;;6282998;22;20079;-84
2023/12/14 14:23:02;;;;;;;0.00;0.00;;;;;;;;;;6256838;22;20079;-83
2023/12/14 14:25:28;;;;;;;0.00;0.00;;;;;;;;;;6230285;22;20004;-84
2023/12/14 14:27:53;;;;;;;0.00;0.00;;;;;;;;;;6268665;22;19984;-83
2023/12/14 14:30:19;;;;;;;0.00;0.00;;;;;;;;;;6291510;22;20008;-84
2023/12/14 14:32:45;;;;;;;0.00;0.00;;;;;;;;;;6266659;22;20018;-83
2023/12/14 14:35:10;;;;;;;0.00;0.00;;;;;;;;;;6291649;22;20014;-83
2023/12/14 14:37:36;;;;;;;0.00;0.00;;;;;;;;;;6278490;22;19996;-84
2023/12/14 14:40:04;;;;;;;0.00;0.00;;;;;;;;;;6273978;22;19999;-81
2023/12/14 14:42:30;;;;;;;0.00;0.00;;;;;;;;;;6286633;22;20007;-82
2023/12/14 14:44:56;;;;;;;0.00;0.00;;;;;;;;;;6276394;22;20008;-81
2023/12/14 14:47:21;;;;;;;0.00;0.00;;;;;;;;;;6225830;22;20000;-82
2023/12/14 14:49:48;;;;;;;0.00;0.00;;;;;;;;;;6257810;22;20031;-82
2023/12/14 14:52:15;;;;;;;0.00;0.00;;;;;;;;;;6277034;22;20355;-81
2023/12/14 14:54:40;;;;;;;0.00;0.00;;;;;;;;;;6277496;22;20087;-82
2023/12/14 14:57:06;;;;;;;0.00;0.00;;;;;;;;;;6249633;22;20445;-82
2023/12/14 14:59:32;;;;;;;0.00;0.00;;;;;;;;;;6276292;22;20042;-85
2023/12/14 15:02:00;;;;;;;0.00;0.00;;;;;;;;;;6276282;22;20034;-85
2023/12/14 15:04:25;;;;;;;0.00;0.00;;;;;;;;;;6276981;22;20000;-86
2023/12/14 15:06:51;;;;;;;0.00;0.00;;;;;;;;;;6250879;22;20007;-84
2023/12/14 15:09:16;;;;;;;0.00;0.00;;;;;;;;;;6250958;22;20355;-85
2023/12/14 15:11:42;;;;;;;0.00;0.00;;;;;;;;;;6249847;22;20428;-86
2023/12/14 15:14:07;;;;;;;0.00;0.00;;;;;;;;;;6249200;22;20057;-84
2023/12/14 15:16:33;;;;;;;0.00;0.00;;;;;;;;;;6223897;22;20022;-87
2023/12/14 15:18:58;;;;;;;0.00;0.00;;;;;;;;;;6248864;22;20007;-88
2023/12/14 15:21:24;;;;;;;0.00;0.00;;;;;;;;;;6276144;22;19999;-87